Time;durP1;ratioP1;P1;durP2;ratioP2;P2;SDS_P1;SDS_P2;PMS_P1;PMS_P2;Temp;Humidity;BMP_temperature;BMP_pressure;BME280_temperature;BME280_humidity;BME280_pressure;Samples;Min_cycle;Max_cycle;Signal;HPM_P1;HPM_P2
2023/03/20 00:01:18;;;;;;;;;;;;;;;11.62;65.55;101123.50;5017627;28;19922;-80
2023/03/20 00:04:10;;;;;;;;;;;;;;;11.61;65.31;101125.41;5017791;28;19918;-81
2023/03/20 00:07:02;;;;;;;;;;;;;;;11.64;65.20;101121.25;5015160;28;20300;-83
2023/03/20 00:09:54;;;;;;;;;;;;;;;11.62;65.10;101123.50;5014402;28;19921;-82
2023/03/20 00:12:47;;;;;;;;;;;;;;;11.68;64.71;101111.34;5017224;28;20389;-81
2023/03/20 00:15:39;;;;;;;;;;;;;;;11.73;64.55;101116.72;5029007;28;19917;-82
2023/03/20 00:18:31;;;;;;;;;;;;;;;11.63;64.74;101123.16;5019252;28;20309;-82
2023/03/20 00:21:20;;;;;;;;;;;;;;;11.62;64.69;101126.22;5020555;28;19917;-82
2023/03/20 00:24:12;;;;;;;;;;;;;;;11.61;64.54;101130.06;5016254;28;19918;-82
2023/03/20 00:27:04;;;;;;;;;;;;;;;11.46;64.51;101126.63;5015404;28;19918;-82
2023/03/20 00:29:56;;;;;;;;;;;;;;;11.43;64.53;101123.69;5015554;28;19917;-82
2023/03/20 00:32:48;;;;;;;;;;;;;;;11.36;64.74;101118.69;5029698;28;19917;-83
2023/03/20 00:35:40;;;;;;;;;;;;;;;11.30;64.65;101121.84;5020181;28;19917;-82
2023/03/20 00:38:32;;;;;;;;;;;;;;;11.27;64.58;101117.03;5023811;28;20297;-82
2023/03/20 00:41:27;;;;;;;;;;;;;;;11.28;64.18;101118.63;5021999;28;20373;-83
2023/03/20 00:44:20;;;;;;;;;;;;;;;11.18;64.33;101106.06;5017766;28;19918;-82
2023/03/20 00:47:22;;;;;;;;;;;;;;;11.07;64.66;101115.59;5017065;28;20304;-82
2023/03/20 00:50:20;;;;;;;;;;;;;;;11.15;64.40;101112.94;5016716;28;19918;-82
2023/03/20 00:53:12;;;;;;;;;;;;;;;11.15;63.87;101106.69;5008945;28;19921;-83
2023/03/20 00:56:04;;;;;;;;;;;;;;;11.21;63.50;101107.38;5014197;28;19917;-81
2023/03/20 00:58:56;;;;;;;;;;;;;;;11.16;63.50;101119.19;5019605;28;20396;-81
2023/03/20 01:01:45;;;;;;;;;;;;;;;11.02;63.77;101116.50;5015954;28;19918;-81
2023/03/20 01:04:38;;;;;;;;;;;;;;;11.10;63.27;101102.19;5015446;28;19925;-80
2023/03/20 01:07:30;;;;;;;;;;;;;;;11.18;63.18;101111.50;5005199;28;19917;-81
2023/03/20 01:10:22;;;;;;;;;;;;;;;11.13;63.05;101111.63;5016247;28;19921;-81
2023/03/20 01:13:20;;;;;;;;;;;;;;;11.19;62.89;101112.31;5017534;28;19929;-82
2023/03/20 01:16:28;;;;;;;;;;;;;;;11.14;62.97;101113.25;5012597;28;19917;-81
2023/03/20 01:19:20;;;;;;;;;;;;;;;11.17;62.72;101103.66;5029636;28;19918;-80
2023/03/20 01:22:12;;;;;;;;;;;;;;;11.22;62.72;101098.91;5012279;28;19918;-81
2023/03/20 01:25:04;;;;;;;;;;;;;;;11.11;62.86;101109.25;5007548;28;19917;-81
2023/03/20 01:27:56;;;;;;;;;;;;;;;11.09;63.05;101100.56;5019155;28;20389;-82
2023/03/20 01:30:46;;;;;;;;;;;;;;;11.04;63.42;101106.13;5029352;28;19917;-80
2023/03/20 01:33:38;;;;;;;;;;;;;;;11.17;63.38;101106.41;5014366;28;19922;-81
2023/03/20 01:36:30;;;;;;;;;;;;;;;11.20;62.88;101103.03;5015503;28;19917;-82
2023/03/20 01:39:23;;;;;;;;;;;;;;;11.22;62.90;101101.63;5016566;28;19918;-80
2023/03/20 01:42:15;;;;;;;;;;;;;;;11.22;63.34;101093.47;5007540;28;20304;-80
2023/03/20 01:45:13;;;;;;;;;;;;;;;11.24;63.79;101091.22;5015645;28;19917;-79
2023/03/20 01:48:13;;;;;;;;;;;;;;;11.26;63.76;101099.09;5001217;28;19921;-80
2023/03/20 01:51:05;;;;;;;;;;;;;;;11.28;64.17;101091.41;4997606;28;19921;-80
2023/03/20 01:54:01;;;;;;;;;;;;;;;11.23;63.97;101078.72;5007394;28;19921;-80
2023/03/20 01:56:55;;;;;;;;;;;;;;;11.30;64.23;101084.53;5005323;28;19917;-80
2023/03/20 01:59:48;;;;;;;;;;;;;;;11.24;65.18;101079.53;5017145;28;19918;-80
2023/03/20 02:02:38;;;;;;;;;;;;;;;11.31;64.98;101082.63;5016833;28;19918;-80
2023/03/20 02:05:29;;;;;;;;;;;;;;;11.30;65.19;101081.00;5015461;28;19918;-80
2023/03/20 02:08:23;;;;;;;;;;;;;;;11.30;65.39;101078.28;5002548;28;19918;-81
2023/03/20 02:11:16;;;;;;;;;;;;;;;11.31;65.37;101082.63;5005897;28;19918;-80
2023/03/20 02:14:09;;;;;;;;;;;;;;;11.31;65.90;101071.72;5015038;28;19921;-80
2023/03/20 02:17:16;;;;;;;;;;;;;;;11.34;65.90;101079.25;5010126;28;20312;-79
2023/03/20 02:20:11;;;;;;;;;;;;;;;11.33;66.18;101085.81;5012895;28;20110;-80
2023/03/20 02:23:03;;;;;;;;;;;;;;;11.35;66.31;101078.97;5007447;28;19917;-81
2023/03/20 02:26:15;;;;;;;;;;;;;;;11.34;66.79;101080.06;5019154;28;19921;-81
2023/03/20 02:29:19;;;;;;;;;;;;;;;11.22;67.41;101079.84;5020227;28;19918;-80
2023/03/20 02:32:27;;;;;;;;;;;;;;;11.23;67.35;101077.91;5022584;28;19917;-81
2023/03/20 02:35:36;;;;;;;;;;;;;;;11.21;66.94;101080.16;5017756;28;19921;-80
2023/03/20 02:38:43;;;;;;;;;;;;;;;11.22;66.25;101087.22;5022469;28;19918;-80
2023/03/20 02:41:47;;;;;;;;;;;;;;;11.16;66.11;101078.38;5016686;28;19917;-80
2023/03/20 02:44:45;;;;;;;;;;;;;;;11.17;65.98;101073.72;5020524;28;19917;-80
2023/03/20 02:47:42;;;;;;;;;;;;;;;11.18;66.17;101075.31;5020519;28;19918;-80
2023/03/20 02:50:48;;;;;;;;;;;;;;;11.17;66.39;101076.44;5023180;28;19917;-80
2023/03/20 02:53:46;;;;;;;;;;;;;;;11.18;66.72;101070.69;5017623;28;19921;-80
2023/03/20 02:56:42;;;;;;;;;;;;;;;11.25;66.21;101070.25;5016217;28;19917;-80
2023/03/20 02:59:40;;;;;;;;;;;;;;;11.22;66.41;101057.28;5035442;28;19917;-80
2023/03/20 03:02:45;;;;;;;;;;;;;;;11.25;66.16;101062.09;5018126;28;19917;-81
2023/03/20 03:05:54;;;;;;;;;;;;;;;11.23;66.32;101064.28;5017342;28;19921;-81
2023/03/20 03:08:48;;;;;;;;;;;;;;;11.25;66.31;101059.34;5018700;28;19922;-81
2023/03/20 03:11:41;;;;;;;;;;;;;;;11.23;66.10;101065.09;5022511;28;19917;-81
2023/03/20 03:14:40;;;;;;;;;;;;;;;11.32;65.90;101059.72;5020927;28;20388;-81
2023/03/20 03:17:34;;;;;;;;;;;;;;;11.34;66.08;101055.56;5035200;28;20312;-81
2023/03/20 03:20:31;;;;;;;;;;;;;;;11.40;66.15;101061.69;5004218;28;19921;-82
2023/03/20 03:23:28;;;;;;;;;;;;;;;11.33;66.25;101058.59;5017531;28;19917;-82
2023/03/20 03:26:30;;;;;;;;;;;;;;;11.27;66.44;101062.59;5016479;28;19917;-81
2023/03/20 03:29:23;;;;;;;;;;;;;;;11.27;66.57;101059.88;5015483;28;19918;-83
2023/03/20 03:32:31;;;;;;;;;;;;;;;11.29;66.53;101052.16;5017919;28;19917;-81
2023/03/20 03:35:23;;;;;;;;;;;;;;;11.29;66.65;101046.72;5019259;28;19936;-81
2023/03/20 03:38:18;;;;;;;;;;;;;;;11.18;66.87;101050.81;5011970;28;19921;-81
2023/03/20 03:41:17;;;;;;;;;;;;;;;11.22;66.54;101054.53;5020164;28;19917;-81
2023/03/20 03:44:12;;;;;;;;;;;;;;;11.23;66.79;101056.94;5019248;28;19917;-81
2023/03/20 03:47:08;;;;;;;;;;;;;;;11.29;66.43;101065.78;5008717;28;19917;-81
2023/03/20 03:50:02;;;;;;;;;;;;;;;11.26;66.94;101063.69;4997926;28;19918;-81
2023/03/20 03:52:55;;;;;;;;;;;;;;;11.26;66.91;101061.78;5017475;28;19917;-81
2023/03/20 03:55:50;;;;;;;;;;;;;;;11.21;67.28;101063.81;5020874;28;19926;-81
2023/03/20 03:58:49;;;;;;;;;;;;;;;11.18;67.50;101069.88;5016542;28;19917;-81
2023/03/20 04:01:43;;;;;;;;;;;;;;;11.15;67.74;101060.41;5019891;28;19925;-81
2023/03/20 04:04:35;;;;;;;;;;;;;;;11.16;67.83;101062.03;5033492;28;19917;-80
2023/03/20 04:07:26;;;;;;;;;;;;;;;11.15;67.82;101055.78;5016451;28;19922;-81
2023/03/20 04:10:18;;;;;;;;;;;;;;;11.20;67.86;101054.03;5008040;28;19944;-81
2023/03/20 04:13:10;;;;;;;;;;;;;;;11.24;67.73;101057.75;5011930;28;19917;-81
2023/03/20 04:16:00;;;;;;;;;;;;;;;11.23;67.63;101050.69;5022112;28;20381;-81
2023/03/20 04:19:00;;;;;;;;;;;;;;;;;;;;;
2023/03/20 04:21:44;;;;;;;;;;;;;;;11.09;67.63;101050.78;5017134;28;19925;-77
2023/03/20 04:24:37;;;;;;;;;;;;;;;11.15;67.16;101039.44;5018673;28;19917;-77
2023/03/20 04:27:26;;;;;;;;;;;;;;;11.05;67.29;101045.16;5019104;28;19917;-78
2023/03/20 04:30:18;;;;;;;;;;;;;;;11.03;67.52;101041.94;5024373;28;19917;-78
2023/03/20 04:33:26;;;;;;;;;;;;;;;11.01;67.35;101052.34;5031294;28;19917;-78
2023/03/20 04:36:33;;;;;;;;;;;;;;;10.92;67.44;101047.94;5029355;28;20328;-79
2023/03/20 04:39:25;;;;;;;;;;;;;;;10.89;67.22;101049.34;5035095;28;20388;-78
2023/03/20 04:42:18;;;;;;;;;;;;;;;10.87;67.05;101040.69;5017547;28;19925;-78
2023/03/20 04:45:10;;;;;;;;;;;;;;;10.79;67.04;101051.50;5030509;28;19921;-78
2023/03/20 04:47:59;;;;;;;;;;;;;;;10.80;67.14;101043.06;5018818;28;19917;-77
2023/03/20 04:50:52;;;;;;;;;;;;;;;10.88;66.80;101046.94;5021432;28;19917;-77
2023/03/20 04:53:47;;;;;;;;;;;;;;;10.84;66.92;101043.22;5015351;28;19922;-78
2023/03/20 04:56:39;;;;;;;;;;;;;;;10.80;67.13;101048.50;5020592;28;19917;-77
2023/03/20 04:59:40;;;;;;;;;;;;;;;10.75;67.62;101054.06;5024156;28;19925;-77
2023/03/20 05:02:30;;;;;;;;;;;;;;;10.74;68.24;101049.72;5020717;28;19917;-78
2023/03/20 05:05:22;;;;;;;;;;;;;;;10.77;67.38;101054.53;5029301;28;19917;-77
2023/03/20 05:08:14;;;;;;;;;;;;;;;10.72;67.52;101058.19;5033416;28;19917;-79
2023/03/20 05:11:07;;;;;;;;;;;;;;;10.68;67.37;101064.53;5026342;28;19917;-77
2023/03/20 05:14:15;;;;;;;;;;;;;;;10.71;67.34;101063.94;5026805;28;19921;-78
2023/03/20 05:17:24;;;;;;;;;;;;;;;10.81;67.20;101065.63;5031030;28;19916;-77
2023/03/20 05:20:32;;;;;;;;;;;;;;;10.88;67.25;101061.34;5027340;28;20368;-78
2023/03/20 05:23:45;;;;;;;;;;;;;;;10.86;67.90;101058.16;5003279;28;20380;-78
2023/03/20 05:26:55;;;;;;;;;;;;;;;10.86;67.69;101063.59;5015845;28;19917;-79
2023/03/20 05:30:03;;;;;;;;;;;;;;;10.84;67.59;101068.53;5017466;28;19917;-78
2023/03/20 05:33:31;;;;;;;;;;;;;;;10.80;67.61;101069.44;4994988;28;19925;-78
2023/03/20 05:36:39;;;;;;;;;;;;;;;10.77;67.21;101070.06;4977174;28;20300;-78
2023/03/20 05:39:48;;;;;;;;;;;;;;;10.77;67.25;101072.78;5024632;28;19917;-78
2023/03/20 05:42:50;;;;;;;;;;;;;;;10.69;67.33;101077.03;5024231;28;19922;-78
2023/03/20 05:45:59;;;;;;;;;;;;;;;10.70;67.19;101071.28;5023078;28;19917;-79
2023/03/20 05:49:14;;;;;;;;;;;;;;;10.58;66.98;101078.38;5030025;28;19917;-78
2023/03/20 05:52:22;;;;;;;;;;;;;;;10.60;67.20;101078.88;5027585;28;20384;-79
2023/03/20 05:55:39;;;;;;;;;;;;;;;10.62;67.12;101085.59;5027881;28;19922;-78
2023/03/20 05:59:01;;;;;;;;;;;;;;;10.64;67.28;101090.75;5014752;28;19917;-78
2023/03/20 06:02:14;;;;;;;;;;;;;;;10.66;67.82;101091.25;5013004;28;19917;-77
2023/03/20 06:05:10;;;;;;;;;;;;;;;10.68;67.46;101097.19;5037280;28;20347;-78
2023/03/20 06:08:10;;;;;;;;;;;;;;;10.60;66.43;101095.19;5047569;28;20399;-78
2023/03/20 06:11:01;;;;;;;;;;;;;;;10.59;65.96;101102.53;5035044;28;19917;-79
2023/03/20 06:13:53;;;;;;;;;;;;;;;10.50;65.93;101112.53;5020656;28;20324;-79
2023/03/20 06:16:45;;;;;;;;;;;;;;;10.48;66.43;101122.09;5024168;28;19917;-78
2023/03/20 06:19:38;;;;;;;;;;;;;;;10.46;66.39;101124.34;5023574;28;19929;-79
2023/03/20 06:22:29;;;;;;;;;;;;;;;10.50;66.58;101133.47;5014960;28;20384;-80
2023/03/20 06:25:21;;;;;;;;;;;;;;;10.50;66.71;101137.00;5018254;28;20297;-78
2023/03/20 06:28:13;;;;;;;;;;;;;;;10.55;66.43;101136.09;5015488;28;20400;-78
2023/03/20 06:31:06;;;;;;;;;;;;;;;10.58;65.99;101138.19;5015104;28;19917;-78
2023/03/20 06:33:55;;;;;;;;;;;;;;;10.59;66.09;101137.09;5003436;28;19925;-77
2023/03/20 06:36:47;;;;;;;;;;;;;;;10.58;66.10;101143.63;5029595;28;19921;-80
2023/03/20 06:39:41;;;;;;;;;;;;;;;10.61;66.07;101143.03;5027342;28;19921;-78
2023/03/20 06:42:34;;;;;;;;;;;;;;;10.58;66.60;101147.16;5005104;28;20392;-78
2023/03/20 06:45:27;;;;;;;;;;;;;;;10.57;67.08;101136.56;5036582;28;19917;-79
2023/03/20 06:48:22;;;;;;;;;;;;;;;10.48;67.44;101144.66;5036994;28;19920;-78
2023/03/20 06:51:14;;;;;;;;;;;;;;;10.55;67.98;101149.69;5028818;28;19917;-78
2023/03/20 06:54:12;;;;;;;;;;;;;;;10.60;68.89;101149.59;5018316;28;19921;-79
2023/03/20 06:57:02;;;;;;;;;;;;;;;10.55;70.03;101149.69;5021271;28;19936;-78
2023/03/20 06:59:54;;;;;;;;;;;;;;;10.64;70.31;101154.09;5018305;28;19918;-78
2023/03/20 07:02:46;;;;;;;;;;;;;;;10.79;70.42;101152.97;5021228;28;19917;-79
2023/03/20 07:05:38;;;;;;;;;;;;;;;10.87;71.01;101149.50;5010947;28;19917;-79
2023/03/20 07:08:30;;;;;;;;;;;;;;;11.02;71.41;101154.59;5029575;28;19921;-79
2023/03/20 07:11:23;;;;;;;;;;;;;;;11.19;71.80;101151.22;5036207;28;19918;-79
2023/03/20 07:14:15;;;;;;;;;;;;;;;11.33;72.52;101148.44;5033367;28;19921;-78
2023/03/20 07:17:11;;;;;;;;;;;;;;;11.48;73.04;101157.03;5024567;28;19921;-79
2023/03/20 07:20:03;;;;;;;;;;;;;;;11.60;73.51;101148.31;5021619;28;20003;-79
2023/03/20 07:22:54;;;;;;;;;;;;;;;11.66;73.29;101144.34;5038887;28;19917;-78
2023/03/20 07:25:50;;;;;;;;;;;;;;;11.76;73.29;101154.22;5029235;28;19921;-79
2023/03/20 07:28:42;;;;;;;;;;;;;;;11.82;73.09;101159.22;5031628;28;19917;-79
2023/03/20 07:31:37;;;;;;;;;;;;;;;11.92;72.86;101156.22;5030368;28;19917;-78
2023/03/20 07:34:53;;;;;;;;;;;;;;;12.03;72.79;101156.75;5027338;28;19921;-80
2023/03/20 07:37:45;;;;;;;;;;;;;;;12.08;73.01;101155.81;5034193;28;19946;-79
2023/03/20 07:40:37;;;;;;;;;;;;;;;12.21;72.92;101152.97;5036480;28;19917;-79
2023/03/20 07:43:31;;;;;;;;;;;;;;;12.32;72.66;101153.50;5034456;28;19921;-80
2023/03/20 07:46:39;;;;;;;;;;;;;;;12.38;71.82;101150.31;5033192;28;19917;-81
2023/03/20 07:49:31;;;;;;;;;;;;;;;12.47;71.31;101146.81;5046262;28;19916;-81
2023/03/20 07:52:23;;;;;;;;;;;;;;;12.57;69.98;101162.88;5035864;28;19917;-81
2023/03/20 07:55:15;;;;;;;;;;;;;;;12.66;70.24;101156.31;5014001;28;19921;-81
2023/03/20 07:58:07;;;;;;;;;;;;;;;13.65;66.59;101163.59;5033447;28;19917;-77
2023/03/20 08:00:59;;;;;;;;;;;;;;;14.32;64.03;101162.88;5040008;28;19916;-77
2023/03/20 08:03:50;;;;;;;;;;;;;;;14.62;62.50;101154.69;5033295;28;19921;-77
2023/03/20 08:06:42;;;;;;;;;;;;;;;14.81;61.12;101164.06;5038106;28;19917;-76
2023/03/20 08:09:34;;;;;;;;;;;;;;;15.16;59.99;101161.88;5038765;28;19917;-75
2023/03/20 08:12:24;;;;;;;;;;;;;;;15.61;58.40;101163.91;5033057;28;20309;-77
2023/03/20 08:15:16;;;;;;;;;;;;;;;15.93;56.98;101167.75;5019532;28;19921;-77
2023/03/20 08:18:07;;;;;;;;;;;;;;;15.78;57.04;101175.50;5022632;28;19918;-77
2023/03/20 08:20:59;;;;;;;;;;;;;;;15.70;56.41;101165.41;5014101;28;19917;-75
2023/03/20 08:23:51;;;;;;;;;;;;;;;15.73;56.85;101163.94;5016709;28;19918;-76
2023/03/20 08:26:41;;;;;;;;;;;;;;;16.08;56.19;101178.06;5027656;28;20381;-77
2023/03/20 08:29:33;;;;;;;;;;;;;;;16.25;54.36;101161.41;5029345;28;19917;-77
2023/03/20 08:32:25;;;;;;;;;;;;;;;16.52;53.92;101163.44;5029196;28;20542;-77
2023/03/20 08:35:14;;;;;;;;;;;;;;;16.58;52.95;101166.78;5032193;28;20392;-76
2023/03/20 08:38:06;;;;;;;;;;;;;;;16.47;53.64;101162.88;5017213;28;19918;-77
2023/03/20 08:40:58;;;;;;;;;;;;;;;16.63;52.21;101164.63;5012457;28;19917;-76
2023/03/20 08:43:50;;;;;;;;;;;;;;;16.84;52.41;101169.97;5012973;28;19921;-77
2023/03/20 08:46:42;;;;;;;;;;;;;;;17.00;51.19;101175.56;5016441;28;19917;-76
2023/03/20 08:49:34;;;;;;;;;;;;;;;16.96;51.71;101177.41;5037927;28;19917;-76
2023/03/20 08:52:26;;;;;;;;;;;;;;;17.22;49.79;101174.25;5020811;28;19917;-76
2023/03/20 08:55:18;;;;;;;;;;;;;;;17.27;49.65;101171.25;5028148;28;20400;-76
2023/03/20 08:58:10;;;;;;;;;;;;;;;16.57;50.70;101170.66;5031279;28;19921;-77
2023/03/20 09:01:05;;;;;;;;;;;;;;;16.33;51.08;101178.91;5031561;28;19921;-79
2023/03/20 09:03:57;;;;;;;;;;;;;;;16.14;51.10;101171.22;5044067;28;19921;-78
2023/03/20 09:06:48;;;;;;;;;;;;;;;15.78;52.12;101178.25;5023301;28;20308;-79
2023/03/20 09:09:40;;;;;;;;;;;;;;;15.64;51.20;101174.22;5020736;28;20396;-78
2023/03/20 09:12:30;;;;;;;;;;;;;;;15.45;51.27;101179.34;5025838;28;19918;-77
2023/03/20 09:15:22;;;;;;;;;;;;;;;15.35;52.14;101175.06;5019734;28;19921;-77
2023/03/20 09:18:14;;;;;;;;;;;;;;;15.34;53.54;101167.97;5030233;28;19917;-77
2023/03/20 09:21:03;;;;;;;;;;;;;;;15.30;53.77;101178.81;5033463;28;19917;-79
2023/03/20 09:23:55;;;;;;;;;;;;;;;15.26;54.33;101182.56;5033443;28;19917;-77
2023/03/20 09:26:47;;;;;;;;;;;;;;;15.13;53.63;101176.25;5025588;28;19917;-79
2023/03/20 09:29:39;;;;;;;;;;;;;;;14.99;53.97;101175.69;5016091;28;19917;-79
2023/03/20 09:32:31;;;;;;;;;;;;;;;14.89;54.08;101174.16;5013677;28;19917;-77
2023/03/20 09:35:24;;;;;;;;;;;;;;;14.91;54.27;101176.56;5012051;28;19921;-77
2023/03/20 09:38:16;;;;;;;;;;;;;;;14.98;53.77;101168.63;5024294;28;19918;-78
2023/03/20 09:41:06;;;;;;;;;;;;;;;14.99;53.41;101162.00;5026597;28;19917;-77
2023/03/20 09:44:04;;;;;;;;;;;;;;;15.17;53.02;101171.69;5023950;28;19917;-77
2023/03/20 09:47:12;;;;;;;;;;;;;;;15.07;53.00;101169.34;5012668;28;19917;-77
2023/03/20 09:50:11;;;;;;;;;;;;;;;15.06;52.80;101166.94;5014230;28;19917;-77
2023/03/20 09:53:04;;;;;;;;;;;;;;;15.09;52.78;101164.31;5012648;28;20308;-77
2023/03/20 09:55:57;;;;;;;;;;;;;;;15.11;52.06;101164.81;5034571;28;19925;-78
2023/03/20 09:58:53;;;;;;;;;;;;;;;15.07;52.48;101163.88;5013003;28;19925;-77
2023/03/20 10:01:50;;;;;;;;;;;;;;;15.08;52.51;101162.75;5021562;28;19917;-77
2023/03/20 10:04:42;;;;;;;;;;;;;;;15.21;52.76;101161.66;5014160;28;20301;-77
2023/03/20 10:07:34;;;;;;;;;;;;;;;15.43;52.58;101166.00;5013075;28;19980;-77
2023/03/20 10:10:29;;;;;;;;;;;;;;;15.50;52.64;101168.16;5000982;28;19917;-77
2023/03/20 10:13:30;;;;;;;;;;;;;;;15.54;51.77;101166.41;5000078;28;19921;-77
2023/03/20 10:16:30;;;;;;;;;;;;;;;15.64;51.32;101161.31;5025500;28;19921;-78
2023/03/20 10:19:25;;;;;;;;;;;;;;;15.74;49.90;101171.03;5042201;22;19917;-78
2023/03/20 10:22:21;;;;;;;;;;;;;;;15.66;50.78;101158.19;5046860;28;19924;-78
2023/03/20 10:25:16;;;;;;;;;;;;;;;15.67;50.71;101154.31;5054496;28;19916;-78
2023/03/20 10:28:04;;;;;;;;;;;;;;;15.73;51.29;101155.72;5038279;28;19917;-77
2023/03/20 10:31:00;;;;;;;;;;;;;;;15.83;51.52;101152.53;5053492;28;19917;-79
2023/03/20 10:33:58;;;;;;;;;;;;;;;15.90;50.82;101154.75;5053409;28;19917;-79
2023/03/20 10:36:54;;;;;;;;;;;;;;;15.76;51.50;101152.28;5068787;28;19925;-79
2023/03/20 10:40:04;;;;;;;;;;;;;;;15.96;50.56;101145.94;5052065;28;19917;-79
2023/03/20 10:42:52;;;;;;;;;;;;;;;16.14;50.17;101152.03;5042983;28;19936;-78
2023/03/20 10:45:51;;;;;;;;;;;;;;;16.23;48.57;101145.28;5035702;28;20600;-78
2023/03/20 10:48:46;;;;;;;;;;;;;;;16.30;48.22;101141.16;5056664;28;19917;-78
2023/03/20 10:51:56;;;;;;;;;;;;;;;16.22;48.87;101131.91;5054461;28;19976;-78
2023/03/20 10:54:51;;;;;;;;;;;;;;;16.19;48.89;101132.59;5055833;28;20308;-76
2023/03/20 10:57:44;;;;;;;;;;;;;;;16.14;48.92;101125.38;5057267;28;19916;-78
2023/03/20 11:00:33;;;;;;;;;;;;;;;16.08;48.83;101125.94;5051713;28;19917;-76
2023/03/20 11:03:27;;;;;;;;;;;;;;;16.07;49.21;101122.41;5044768;28;19921;-78
2023/03/20 11:06:20;;;;;;;;;;;;;;;16.20;49.53;101106.75;5059455;28;20388;-77
2023/03/20 11:09:12;;;;;;;;;;;;;;;16.21;49.39;101111.88;5070905;28;19917;-79
2023/03/20 11:12:03;;;;;;;;;;;;;;;16.24;49.56;101116.69;5059958;28;19924;-77
2023/03/20 11:14:59;;;;;;;;;;;;;;;16.14;49.29;101119.91;5058434;28;19921;-78
2023/03/20 11:17:58;;;;;;;;;;;;;;;16.26;49.53;101116.34;5045006;28;19921;-77
2023/03/20 11:20:50;;;;;;;;;;;;;;;16.31;49.47;101115.31;5068316;28;19917;-79
2023/03/20 11:23:39;;;;;;;;;;;;;;;16.35;49.70;101114.28;5061083;28;20336;-79
2023/03/20 11:26:35;;;;;;;;;;;;;;;16.36;49.33;101115.06;5055437;28;19917;-77
2023/03/20 11:29:34;;;;;;;;;;;;;;;16.40;49.56;101105.81;5068556;28;19917;-77
2023/03/20 11:32:30;;;;;;;;;;;;;;;16.55;49.17;101096.88;5037059;28;19917;-77
2023/03/20 11:35:22;;;;;;;;;;;;;;;16.65;48.98;101098.38;5041700;28;19920;-78
2023/03/20 11:38:19;;;;;;;;;;;;;;;16.71;49.30;101101.69;5061105;28;19917;-77
2023/03/20 11:41:18;;;;;;;;;;;;;;;16.82;49.54;101095.34;5046558;28;19920;-77
2023/03/20 11:44:21;;;;;;;;;;;;;;;17.01;47.58;101098.28;5060832;28;19921;-77
2023/03/20 11:47:16;;;;;;;;;;;;;;;16.97;47.56;101091.84;5045880;28;20296;-77
2023/03/20 11:50:08;;;;;;;;;;;;;;;17.08;47.34;101095.72;5056636;28;19917;-78
2023/03/20 11:53:01;;;;;;;;;;;;;;;17.25;46.42;101089.13;5051964;28;20296;-76
2023/03/20 11:56:09;;;;;;;;;;;;;;;17.29;46.04;101081.78;5050394;28;19921;-76
2023/03/20 11:59:02;;;;;;;;;;;;;;;17.22;46.06;101070.56;5054135;28;20299;-77
2023/03/20 12:01:59;;;;;;;;;;;;;;;17.38;44.72;101079.66;5066505;28;19916;-77
2023/03/20 12:04:51;;;;;;;;;;;;;;;17.36;45.29;101075.66;5055282;28;20403;-78
2023/03/20 12:07:44;;;;;;;;;;;;;;;17.27;45.70;101073.06;5047609;28;19925;-78
2023/03/20 12:10:38;;;;;;;;;;;;;;;17.27;45.67;101075.03;5055860;28;19917;-79
2023/03/20 12:13:35;;;;;;;;;;;;;;;17.29;45.09;101064.47;5059215;28;19917;-77
2023/03/20 12:16:28;;;;;;;;;;;;;;;17.35;44.79;101069.38;5050082;28;19921;-78
2023/03/20 12:19:21;;;;;;;;;;;;;;;17.40;44.24;101071.06;5055108;28;19921;-79
2023/03/20 12:22:35;;;;;;;;;;;;;;;17.48;44.10;101059.09;5067598;28;19922;-78
2023/03/20 12:25:29;;;;;;;;;;;;;;;17.47;44.29;101052.78;5053450;28;19916;-77
2023/03/20 12:28:31;;;;;;;;;;;;;;;17.45;44.37;101051.56;5052457;28;19925;-78
2023/03/20 12:31:40;;;;;;;;;;;;;;;17.38;44.69;101052.16;5057957;28;19917;-77
2023/03/20 12:34:36;;;;;;;;;;;;;;;17.63;44.12;101052.03;5058758;28;19916;-77
2023/03/20 12:37:28;;;;;;;;;;;;;;;17.70;43.72;101053.03;5051890;28;19921;-79
2023/03/20 12:40:21;;;;;;;;;;;;;;;17.73;43.89;101044.03;5052052;28;19920;-77
2023/03/20 12:43:21;;;;;;;;;;;;;;;17.76;43.85;101045.31;5048035;28;19921;-77
2023/03/20 12:46:22;;;;;;;;;;;;;;;17.94;43.85;101049.28;5062766;28;19917;-76
2023/03/20 12:49:21;;;;;;;;;;;;;;;18.07;43.23;101045.28;5042486;28;19917;-77
2023/03/20 12:52:16;;;;;;;;;;;;;;;18.14;42.52;101044.63;5043596;28;19917;-77
2023/03/20 12:55:28;;;;;;;;;;;;;;;18.11;42.30;101034.34;5069315;28;19921;-76
2023/03/20 12:58:21;;;;;;;;;;;;;;;18.18;42.49;101038.06;5019850;28;19921;-77
2023/03/20 13:01:11;;;;;;;;;;;;;;;18.20;41.70;101032.19;5036754;28;20310;-79
2023/03/20 13:04:17;;;;;;;;;;;;;;;18.25;42.08;101040.16;5045014;28;20308;-78
2023/03/20 13:07:08;;;;;;;;;;;;;;;18.24;42.12;101033.88;5042719;28;19917;-78
2023/03/20 13:10:00;;;;;;;;;;;;;;;18.20;42.46;101029.44;5064002;28;20346;-78
2023/03/20 13:13:22;;;;;;;;;;;;;;;18.24;42.35;101027.56;5059036;28;19917;-76
2023/03/20 13:16:32;;;;;;;;;;;;;;;18.20;41.98;101032.19;5029392;28;19920;-84
2023/03/20 13:19:40;;;;;;;;;;;;;;;18.30;41.94;101021.41;5040685;28;19929;-76
2023/03/20 13:22:49;;;;;;;;;;;;;;;18.38;41.48;101023.19;5042044;28;19925;-75
2023/03/20 13:25:55;;;;;;;;;;;;;;;18.35;41.60;101021.13;5056427;28;19917;-74
2023/03/20 13:29:03;;;;;;;;;;;;;;;18.27;41.73;101021.34;5048976;28;19917;-75
2023/03/20 13:32:10;;;;;;;;;;;;;;;18.30;41.99;101020.63;5044859;28;20537;-75
2023/03/20 13:35:12;;;;;;;;;;;;;;;18.25;41.84;101018.94;5050443;28;19929;-74
2023/03/20 13:38:08;;;;;;;;;;;;;;;18.33;42.25;101014.41;5053054;28;19917;-74
2023/03/20 13:40:59;;;;;;;;;;;;;;;18.39;42.43;101013.75;5061948;28;20388;-73
2023/03/20 13:43:53;;;;;;;;;;;;;;;18.46;41.65;101007.59;5046781;28;20383;-75
2023/03/20 13:46:47;;;;;;;;;;;;;;;18.47;41.91;101008.41;5063951;28;19916;-73
2023/03/20 13:49:39;;;;;;;;;;;;;;;18.52;40.77;100997.09;5041872;28;19917;-75
2023/03/20 13:52:36;;;;;;;;;;;;;;;18.46;41.36;101007.59;5060038;28;19916;-74
2023/03/20 13:55:52;;;;;;;;;;;;;;;18.56;40.68;101000.75;5039332;28;20388;-73
2023/03/20 13:59:01;;;;;;;;;;;;;;;18.58;40.13;101004.75;5053287;28;19917;-72
2023/03/20 14:01:57;;;;;;;;;;;;;;;18.60;40.60;100996.09;5050652;28;19917;-74
2023/03/20 14:04:51;;;;;;;;;;;;;;;18.65;40.83;101004.06;5051035;28;19925;-74
2023/03/20 14:07:43;;;;;;;;;;;;;;;18.64;40.23;101002.50;5056220;28;19917;-75
2023/03/20 14:10:34;;;;;;;;;;;;;;;18.52;40.29;100995.16;5064570;28;19917;-75
2023/03/20 14:13:26;;;;;;;;;;;;;;;18.54;40.54;101000.34;5050738;28;19916;-74
2023/03/20 14:16:18;;;;;;;;;;;;;;;18.42;40.45;100998.47;5060959;28;19921;-75
2023/03/20 14:19:19;;;;;;;;;;;;;;;18.47;40.40;101006.44;5063872;28;20338;-75
2023/03/20 14:22:13;;;;;;;;;;;;;;;18.46;41.26;100999.34;5049506;28;19925;-75
2023/03/20 14:25:01;;;;;;;;;;;;;;;18.47;41.86;101000.94;5036733;28;19924;-75
2023/03/20 14:28:24;;;;;;;;;;;;;;;18.58;41.19;101001.19;5052328;28;19925;-75
2023/03/20 14:31:33;;;;;;;;;;;;;;;18.62;41.72;101000.09;5047892;28;19917;-73
2023/03/20 14:34:28;;;;;;;;;;;;;;;18.59;41.76;100998.06;5067490;28;19917;-74
2023/03/20 14:37:36;;;;;;;;;;;;;;;18.60;41.22;100996.09;5051599;28;20384;-73
2023/03/20 14:40:30;;;;;;;;;;;;;;;18.58;41.48;100990.97;5054999;28;19925;-74
2023/03/20 14:43:30;;;;;;;;;;;;;;;18.50;41.63;100991.16;5043434;28;19916;-76
2023/03/20 14:46:23;;;;;;;;;;;;;;;18.45;41.66;100992.22;5047784;28;19921;-74
2023/03/20 14:49:19;;;;;;;;;;;;;;;18.48;41.44;100987.97;5061858;28;19916;-76
2023/03/20 14:52:33;;;;;;;;;;;;;;;18.48;41.62;100988.78;5043788;28;19917;-74
2023/03/20 14:55:26;;;;;;;;;;;;;;;18.51;41.44;100981.72;5037499;28;19921;-76
2023/03/20 14:58:42;;;;;;;;;;;;;;;18.45;41.63;100977.66;5063550;28;19917;-75
2023/03/20 15:01:43;;;;;;;;;;;;;;;18.48;41.48;100982.47;5034393;28;19917;-74
2023/03/20 15:04:43;;;;;;;;;;;;;;;18.38;41.65;100990.16;5047970;28;19917;-74
2023/03/20 15:07:35;;;;;;;;;;;;;;;18.41;41.46;100977.59;5041886;28;19917;-75